Time;durP1;ratioP1;P1;durP2;ratioP2;P2;SDS_P1;SDS_P2;PMS_P1;PMS_P2;Temp;Humidity;BMP_temperature;BMP_pressure;BME280_temperature;BME280_humidity;BME280_pressure;Samples;Min_cycle;Max_cycle;Signal;HPM_P1;HPM_P2
2022/10/28 00:00:41;;;;;;;3.10;1.27;;;;;;;;;;5019766;28;87130;-53
2022/10/28 00:03:09;;;;;;;0.97;0.90;;;;;;;;;;5020950;28;87888;-53
2022/10/28 00:05:37;;;;;;;1.50;1.00;;;;;;;;;;5021380;28;89966;-55
2022/10/28 00:08:06;;;;;;;2.60;1.50;;;;;;;;;;5020595;28;87011;-54
2022/10/28 00:10:35;;;;;;;3.17;1.30;;;;;;;;;;5023593;28;87040;-54
2022/10/28 00:13:03;;;;;;;2.80;1.20;;;;;;;;;;5019518;28;89155;-53
2022/10/28 00:15:34;;;;;;;2.17;1.17;;;;;;;;;;5018561;28;87623;-53
2022/10/28 00:18:02;;;;;;;3.50;1.07;;;;;;;;;;5041511;28;87071;-53
2022/10/28 00:20:31;;;;;;;3.00;1.67;;;;;;;;;;5033202;28;86962;-54
2022/10/28 00:22:59;;;;;;;1.63;1.13;;;;;;;;;;5027219;28;88896;-53
2022/10/28 00:25:27;;;;;;;1.60;1.20;;;;;;;;;;5019830;28;88903;-55
2022/10/28 00:27:57;;;;;;;2.13;1.10;;;;;;;;;;5020172;28;87170;-53
2022/10/28 00:30:25;;;;;;;1.30;1.03;;;;;;;;;;5012714;28;86964;-53
2022/10/28 00:32:54;;;;;;;1.83;1.03;;;;;;;;;;5017040;28;88128;-53
2022/10/28 00:35:23;;;;;;;0.80;0.80;;;;;;;;;;5017969;28;87753;-54
2022/10/28 00:37:53;;;;;;;4.23;1.60;;;;;;;;;;5027645;28;87080;-53
2022/10/28 00:40:22;;;;;;;1.87;1.67;;;;;;;;;;5019456;28;86490;-53
2022/10/28 00:42:50;;;;;;;1.10;1.07;;;;;;;;;;5021587;28;87907;-54
2022/10/28 00:45:20;;;;;;;3.43;1.13;;;;;;;;;;5017173;28;87722;-54
2022/10/28 00:47:50;;;;;;;1.17;1.07;;;;;;;;;;5019727;28;87758;-55
2022/10/28 00:50:23;;;;;;;1.33;1.23;;;;;;;;;;5019921;28;86945;-54
2022/10/28 00:52:52;;;;;;;3.40;1.20;;;;;;;;;;5020512;28;88329;-54
2022/10/28 00:55:21;;;;;;;1.13;1.03;;;;;;;;;;5020308;28;87564;-53
2022/10/28 00:57:49;;;;;;;2.20;1.00;;;;;;;;;;5020842;28;86840;-54
2022/10/28 01:00:18;;;;;;;0.90;0.90;;;;;;;;;;5019854;28;87072;-54
2022/10/28 01:02:48;;;;;;;1.27;1.13;;;;;;;;;;5025233;28;88720;-54
2022/10/28 01:05:17;;;;;;;1.93;1.27;;;;;;;;;;5034620;28;86361;-55
2022/10/28 01:07:45;;;;;;;1.70;1.30;;;;;;;;;;5020008;28;89062;-53
2022/10/28 01:10:13;;;;;;;3.80;1.53;;;;;;;;;;5018767;28;87074;-56
2022/10/28 01:12:45;;;;;;;1.83;1.63;;;;;;;;;;5012944;28;88849;-54
2022/10/28 01:15:16;;;;;;;1.70;1.60;;;;;;;;;;5011576;28;90126;-55
2022/10/28 01:17:50;;;;;;;1.70;0.83;;;;;;;;;;5015337;28;87162;-54
2022/10/28 01:20:39;;;;;;;2.63;0.93;;;;;;;;;;5013845;28;86949;-53
2022/10/28 01:23:12;;;;;;;2.33;1.20;;;;;;;;;;4987071;28;89120;-55
2022/10/28 01:25:47;;;;;;;1.33;1.00;;;;;;;;;;5019786;28;88395;-54
2022/10/28 01:28:23;;;;;;;0.90;0.90;;;;;;;;;;5017815;28;86976;-54
2022/10/28 01:31:01;;;;;;;2.60;1.23;;;;;;;;;;5016988;28;86335;-53
2022/10/28 01:33:31;;;;;;;1.37;1.13;;;;;;;;;;5007010;28;90294;-54
2022/10/28 01:36:00;;;;;;;8.27;1.53;;;;;;;;;;5019686;28;87635;-55
2022/10/28 01:38:29;;;;;;;2.27;1.17;;;;;;;;;;5017812;28;88046;-53
2022/10/28 01:40:59;;;;;;;1.00;0.90;;;;;;;;;;5017822;28;87156;-54
2022/10/28 01:43:28;;;;;;;1.07;1.00;;;;;;;;;;5021580;28;87988;-54
2022/10/28 01:45:58;;;;;;;2.27;1.47;;;;;;;;;;5021298;28;87737;-54
2022/10/28 01:48:29;;;;;;;1.50;0.83;;;;;;;;;;5023822;28;87022;-54
2022/10/28 01:50:58;;;;;;;1.70;1.47;;;;;;;;;;5022549;28;87149;-53
2022/10/28 01:53:29;;;;;;;1.67;1.10;;;;;;;;;;5023986;28;88142;-53
2022/10/28 01:55:59;;;;;;;2.27;1.33;;;;;;;;;;5024324;28;86532;-53
2022/10/28 01:58:28;;;;;;;1.50;1.13;;;;;;;;;;5023393;28;86955;-54
2022/10/28 02:00:56;;;;;;;1.90;1.07;;;;;;;;;;5020945;28;87744;-52
2022/10/28 02:03:24;;;;;;;2.23;1.40;;;;;;;;;;5022285;28;88026;-52
2022/10/28 02:05:54;;;;;;;1.23;1.03;;;;;;;;;;5020824;28;88901;-53
2022/10/28 02:08:32;;;;;;;1.53;1.43;;;;;;;;;;5023191;28;87126;-53
2022/10/28 02:11:03;;;;;;;2.67;1.20;;;;;;;;;;5019201;28;87113;-53
2022/10/28 02:13:35;;;;;;;0.87;0.87;;;;;;;;;;5022291;28;87100;-53
2022/10/28 02:16:04;;;;;;;3.60;1.47;;;;;;;;;;5023044;28;87880;-53
2022/10/28 02:18:34;;;;;;;2.00;1.33;;;;;;;;;;5019898;28;87140;-54
2022/10/28 02:21:04;;;;;;;1.83;1.30;;;;;;;;;;5021803;28;86262;-54
2022/10/28 02:23:37;;;;;;;2.53;1.40;;;;;;;;;;5023062;28;88251;-53
2022/10/28 02:26:07;;;;;;;2.17;1.40;;;;;;;;;;5021952;28;86954;-54
2022/10/28 02:28:37;;;;;;;2.33;1.50;;;;;;;;;;5020934;28;88216;-53
2022/10/28 02:31:06;;;;;;;3.07;1.17;;;;;;;;;;5021826;28;86971;-54
2022/10/28 02:33:35;;;;;;;0.87;0.70;;;;;;;;;;5022522;28;87930;-52
2022/10/28 02:36:05;;;;;;;5.37;1.20;;;;;;;;;;5020369;28;89251;-53
2022/10/28 02:38:34;;;;;;;1.00;0.90;;;;;;;;;;5023625;28;87125;-52
2022/10/28 02:41:03;;;;;;;2.63;1.53;;;;;;;;;;5021722;28;87071;-54
2022/10/28 02:43:31;;;;;;;1.63;1.00;;;;;;;;;;5022005;28;88150;-53
2022/10/28 02:45:59;;;;;;;1.53;1.30;;;;;;;;;;5038175;28;87798;-54
2022/10/28 02:48:29;;;;;;;2.83;0.97;;;;;;;;;;5020506;28;87207;-52
2022/10/28 02:50:58;;;;;;;1.40;1.30;;;;;;;;;;5022022;28;87046;-52
2022/10/28 02:53:29;;;;;;;1.43;1.00;;;;;;;;;;5020807;28;89871;-53
2022/10/28 02:55:58;;;;;;;2.67;1.60;;;;;;;;;;5020446;28;89918;-52
2022/10/28 02:58:26;;;;;;;2.70;1.93;;;;;;;;;;5022225;28;87106;-53
2022/10/28 03:00:54;;;;;;;2.37;1.43;;;;;;;;;;5021608;28;86884;-53
2022/10/28 03:03:23;;;;;;;1.03;1.03;;;;;;;;;;5020682;28;88105;-53
2022/10/28 03:05:51;;;;;;;2.30;1.43;;;;;;;;;;5022341;28;87560;-53
2022/10/28 03:08:19;;;;;;;1.13;1.03;;;;;;;;;;5019657;28;86849;-53
2022/10/28 03:10:49;;;;;;;1.07;0.97;;;;;;;;;;5022410;28;86099;-53
2022/10/28 03:13:17;;;;;;;1.47;1.10;;;;;;;;;;5022068;28;89038;-52
2022/10/28 03:15:45;;;;;;;4.03;1.30;;;;;;;;;;5020181;28;88724;-54
2022/10/28 03:18:14;;;;;;;2.37;1.93;;;;;;;;;;5007948;28;88099;-53
2022/10/28 03:20:42;;;;;;;1.47;1.23;;;;;;;;;;5009449;28;86996;-52
2022/10/28 03:23:10;;;;;;;1.70;1.30;;;;;;;;;;5023132;28;87918;-52
2022/10/28 03:25:38;;;;;;;3.57;1.30;;;;;;;;;;5020994;28;88978;-52
2022/10/28 03:28:08;;;;;;;1.70;1.00;;;;;;;;;;5021226;28;86858;-52
2022/10/28 03:30:36;;;;;;;2.40;1.17;;;;;;;;;;5023004;28;87128;-53
2022/10/28 03:33:04;;;;;;;1.67;1.57;;;;;;;;;;5021269;28;88167;-54
2022/10/28 03:35:33;;;;;;;2.60;1.60;;;;;;;;;;5022014;28;87940;-53
2022/10/28 03:38:01;;;;;;;1.53;1.33;;;;;;;;;;5019655;28;87083;-53
2022/10/28 03:40:29;;;;;;;1.57;1.10;;;;;;;;;;5002662;28;87040;-53
2022/10/28 03:42:57;;;;;;;4.57;1.57;;;;;;;;;;5020697;28;88830;-52
2022/10/28 03:45:27;;;;;;;1.83;1.37;;;;;;;;;;5020938;28;89716;-53
2022/10/28 03:47:56;;;;;;;2.43;1.37;;;;;;;;;;5020154;28;87767;-52
2022/10/28 03:50:25;;;;;;;0.90;0.90;;;;;;;;;;5020636;28;86952;-55
2022/10/28 03:52:53;;;;;;;1.67;1.57;;;;;;;;;;5020513;28;88173;-53
2022/10/28 03:55:22;;;;;;;1.53;1.30;;;;;;;;;;5020482;28;88884;-52
2022/10/28 03:57:50;;;;;;;3.07;1.50;;;;;;;;;;5020344;28;87051;-54
2022/10/28 04:00:19;;;;;;;2.03;1.43;;;;;;;;;;5020786;28;86824;-53
2022/10/28 04:02:51;;;;;;;1.97;1.40;;;;;;;;;;5019818;28;88172;-52
2022/10/28 04:05:20;;;;;;;1.17;0.90;;;;;;;;;;5017963;28;87718;-54
2022/10/28 04:07:48;;;;;;;3.80;1.43;;;;;;;;;;5019963;28;87972;-52
2022/10/28 04:10:16;;;;;;;1.70;1.20;;;;;;;;;;5005455;28;86730;-52
2022/10/28 04:12:45;;;;;;;1.93;1.10;;;;;;;;;;5021051;28;87868;-54
2022/10/28 04:15:13;;;;;;;1.10;1.00;;;;;;;;;;5019695;28;88630;-53
2022/10/28 04:17:41;;;;;;;0.90;0.90;;;;;;;;;;5019175;28;87248;-52
2022/10/28 04:20:11;;;;;;;2.63;1.10;;;;;;;;;;5021715;28;86990;-53
2022/10/28 04:22:39;;;;;;;1.43;1.20;;;;;;;;;;5017618;28;88906;-52
2022/10/28 04:25:08;;;;;;;1.27;1.03;;;;;;;;;;5021984;28;87665;-53
2022/10/28 04:27:36;;;;;;;1.37;1.20;;;;;;;;;;5018485;28;87070;-53
2022/10/28 04:30:05;;;;;;;2.33;1.67;;;;;;;;;;5020165;28;87909;-53
2022/10/28 04:32:33;;;;;;;1.37;1.27;;;;;;;;;;5018462;28;89838;-52
2022/10/28 04:35:01;;;;;;;2.47;1.47;;;;;;;;;;5018707;28;89851;-52
2022/10/28 04:37:31;;;;;;;1.37;1.10;;;;;;;;;;5018941;28;87375;-53
2022/10/28 04:39:59;;;;;;;1.60;1.20;;;;;;;;;;5021618;28;87096;-53
2022/10/28 04:42:28;;;;;;;2.40;1.03;;;;;;;;;;5019234;28;89228;-52
2022/10/28 04:44:56;;;;;;;2.83;1.10;;;;;;;;;;5021403;28;87622;-53
2022/10/28 04:47:24;;;;;;;1.70;1.37;;;;;;;;;;5020531;28;86846;-53
2022/10/28 04:49:53;;;;;;;1.67;1.30;;;;;;;;;;5020333;28;86387;-53
2022/10/28 04:52:21;;;;;;;4.73;1.60;;;;;;;;;;5017421;28;88877;-55
2022/10/28 04:54:50;;;;;;;1.60;1.50;;;;;;;;;;5021416;28;87793;-53
2022/10/28 04:57:19;;;;;;;2.07;1.33;;;;;;;;;;5018917;28;88010;-55
2022/10/28 04:59:47;;;;;;;2.27;1.13;;;;;;;;;;5021568;28;86935;-54
2022/10/28 05:02:15;;;;;;;1.97;1.23;;;;;;;;;;5020646;28;88856;-55
2022/10/28 05:04:44;;;;;;;1.63;1.17;;;;;;;;;;5018468;28;87462;-54
2022/10/28 05:07:12;;;;;;;1.67;1.07;;;;;;;;;;5017354;28;86994;-55
2022/10/28 05:09:40;;;;;;;1.13;1.00;;;;;;;;;;5021801;28;86853;-55
2022/10/28 05:12:10;;;;;;;1.37;1.20;;;;;;;;;;5019772;28;88881;-55
2022/10/28 05:14:38;;;;;;;1.13;1.03;;;;;;;;;;5021625;28;87476;-54
2022/10/28 05:17:06;;;;;;;1.77;1.43;;;;;;;;;;5020819;28;87162;-55
2022/10/28 05:19:34;;;;;;;1.50;1.37;;;;;;;;;;5020667;28;86945;-55
2022/10/28 05:22:03;;;;;;;1.30;1.20;;;;;;;;;;5019624;28;89070;-52
2022/10/28 05:24:31;;;;;;;2.57;1.03;;;;;;;;;;5021995;28;87384;-55
2022/10/28 05:26:59;;;;;;;2.00;1.13;;;;;;;;;;5020552;28;89005;-56
2022/10/28 05:29:29;;;;;;;1.17;1.13;;;;;;;;;;5019933;28;87077;-55
2022/10/28 05:32:00;;;;;;;1.23;1.13;;;;;;;;;;5020108;28;89233;-55
2022/10/28 05:34:29;;;;;;;1.73;1.30;;;;;;;;;;5019767;28;87360;-55
2022/10/28 05:36:57;;;;;;;1.23;1.00;;;;;;;;;;5019758;28;87155;-55
2022/10/28 05:39:25;;;;;;;1.73;1.40;;;;;;;;;;5016287;28;86243;-55
2022/10/28 05:41:54;;;;;;;1.07;0.87;;;;;;;;;;5014926;28;87939;-52
2022/10/28 05:44:22;;;;;;;2.27;1.20;;;;;;;;;;5012595;28;87869;-55
2022/10/28 05:46:52;;;;;;;4.80;1.27;;;;;;;;;;5006790;28;87949;-54
2022/10/28 05:49:21;;;;;;;1.40;1.30;;;;;;;;;;5009488;28;88525;-56
2022/10/28 05:51:49;;;;;;;1.47;0.90;;;;;;;;;;5011744;28;86997;-54
2022/10/28 05:54:18;;;;;;;1.03;0.93;;;;;;;;;;5020071;28;87028;-54
2022/10/28 05:56:46;;;;;;;2.37;1.60;;;;;;;;;;5018357;28;87074;-55
2022/10/28 05:59:14;;;;;;;0.77;0.77;;;;;;;;;;5020523;28;87134;-54
2022/10/28 06:01:43;;;;;;;1.23;0.90;;;;;;;;;;5012110;28;88116;-55
2022/10/28 06:04:12;;;;;;;1.63;0.90;;;;;;;;;;5017754;28;88810;-53
2022/10/28 06:06:41;;;;;;;2.33;1.27;;;;;;;;;;5003715;28;87094;-55
2022/10/28 06:09:09;;;;;;;3.07;1.30;;;;;;;;;;5009816;28;87113;-56
2022/10/28 06:11:37;;;;;;;1.30;1.20;;;;;;;;;;5001435;28;88838;-56
2022/10/28 06:14:06;;;;;;;2.13;1.37;;;;;;;;;;5017298;28;88573;-55
2022/10/28 06:16:34;;;;;;;1.60;1.00;;;;;;;;;;5015096;28;88323;-56
2022/10/28 06:19:02;;;;;;;1.20;1.10;;;;;;;;;;5005838;28;87045;-56
2022/10/28 06:21:32;;;;;;;1.23;1.00;;;;;;;;;;5003864;28;88607;-56
2022/10/28 06:24:00;;;;;;;2.17;1.60;;;;;;;;;;5004563;28;88586;-55
2022/10/28 06:26:28;;;;;;;2.50;1.60;;;;;;;;;;5002142;28;86994;-57
2022/10/28 06:28:57;;;;;;;1.00;1.00;;;;;;;;;;5002407;28;86321;-55
2022/10/28 06:31:25;;;;;;;1.33;1.13;;;;;;;;;;5004704;28;87904;-56
2022/10/28 06:33:53;;;;;;;2.43;1.17;;;;;;;;;;5004507;28;87670;-54
2022/10/28 06:36:22;;;;;;;2.23;1.00;;;;;;;;;;5008083;28;87936;-55
2022/10/28 06:38:54;;;;;;;2.97;1.03;;;;;;;;;;5005410;28;87175;-54
2022/10/28 06:41:22;;;;;;;1.47;1.20;;;;;;;;;;5003315;28;89188;-56
2022/10/28 06:43:51;;;;;;;1.50;1.10;;;;;;;;;;4999886;28;87794;-54
2022/10/28 06:46:19;;;;;;;2.33;1.10;;;;;;;;;;5008239;28;87154;-55
2022/10/28 06:48:47;;;;;;;2.93;1.23;;;;;;;;;;5006531;28;87053;-56
2022/10/28 06:51:16;;;;;;;1.37;1.23;;;;;;;;;;5015256;28;88387;-52
2022/10/28 06:53:45;;;;;;;3.03;1.20;;;;;;;;;;5003852;28;87570;-55
2022/10/28 06:56:14;;;;;;;2.10;1.30;;;;;;;;;;5003261;28;87030;-54
2022/10/28 06:58:43;;;;;;;0.80;0.80;;;;;;;;;;5003213;28;87035;-55
2022/10/28 07:01:11;;;;;;;2.10;1.50;;;;;;;;;;5009825;28;89341;-55
2022/10/28 07:03:39;;;;;;;2.40;1.17;;;;;;;;;;5003933;28;89768;-55
2022/10/28 07:06:08;;;;;;;2.37;1.23;;;;;;;;;;5013383;28;87062;-55
2022/10/28 07:08:36;;;;;;;2.43;1.43;;;;;;;;;;5006293;28;86997;-56
2022/10/28 07:11:05;;;;;;;1.67;0.90;;;;;;;;;;5006523;28;88196;-55
2022/10/28 07:13:34;;;;;;;2.07;1.10;;;;;;;;;;5002341;28;88866;-55
2022/10/28 07:16:04;;;;;;;4.93;1.53;;;;;;;;;;5010092;28;87076;-56
2022/10/28 07:18:32;;;;;;;1.20;1.10;;;;;;;;;;5005156;28;86339;-55
2022/10/28 07:21:00;;;;;;;2.33;1.37;;;;;;;;;;5004366;28;88129;-55
2022/10/28 07:23:30;;;;;;;1.37;0.90;;;;;;;;;;5000597;28;88911;-55
2022/10/28 07:25:58;;;;;;;1.40;0.93;;;;;;;;;;5001850;28;87937;-56
2022/10/28 07:28:27;;;;;;;2.13;1.07;;;;;;;;;;5002577;28;87235;-55
2022/10/28 07:31:00;;;;;;;2.43;1.30;;;;;;;;;;5002192;28;87086;-55
2022/10/28 07:33:28;;;;;;;2.50;1.50;;;;;;;;;;5002906;28;87830;-55
2022/10/28 07:35:57;;;;;;;2.90;1.13;;;;;;;;;;5002469;28;87047;-55
2022/10/28 07:38:25;;;;;;;4.67;1.60;;;;;;;;;;5002806;28;87051;-54
2022/10/28 07:40:54;;;;;;;2.37;1.43;;;;;;;;;;4999943;28;89370;-54
2022/10/28 07:43:22;;;;;;;1.63;0.73;;;;;;;;;;5002160;28;87786;-55
2022/10/28 07:45:57;;;;;;;3.03;1.00;;;;;;;;;;5003162;28;86782;-55
2022/10/28 07:48:25;;;;;;;1.77;1.00;;;;;;;;;;5007858;28;87014;-55
2022/10/28 07:50:53;;;;;;;2.23;1.13;;;;;;;;;;5022648;28;89192;-55
2022/10/28 07:53:22;;;;;;;1.53;1.40;;;;;;;;;;5009897;28;87257;-55
2022/10/28 07:55:56;;;;;;;2.13;1.37;;;;;;;;;;5000149;28;87066;-52
2022/10/28 07:58:25;;;;;;;1.30;1.20;;;;;;;;;;5002344;28;87005;-52
2022/10/28 08:00:53;;;;;;;2.03;1.40;;;;;;;;;;5001425;28;86989;-53
2022/10/28 08:03:23;;;;;;;0.87;0.80;;;;;;;;;;5010726;28;87096;-55
2022/10/28 08:06:01;;;;;;;2.60;1.17;;;;;;;;;;5022743;28;86881;-55
2022/10/28 08:08:30;;;;;;;5.47;1.57;;;;;;;;;;5020688;28;86277;-55
2022/10/28 08:10:58;;;;;;;6.33;1.27;;;;;;;;;;5004054;28;86994;-55
2022/10/28 08:13:26;;;;;;;2.17;1.50;;;;;;;;;;5022565;28;87680;-54
2022/10/28 08:15:55;;;;;;;1.33;1.00;;;;;;;;;;5019783;28;88322;-54
2022/10/28 08:18:24;;;;;;;1.97;1.00;;;;;;;;;;5010745;28;87020;-53
2022/10/28 08:20:53;;;;;;;1.93;1.30;;;;;;;;;;4991735;28;89047;-52
2022/10/28 08:23:21;;;;;;;1.77;1.27;;;;;;;;;;5000622;28;87882;-52
2022/10/28 08:25:49;;;;;;;3.03;1.10;;;;;;;;;;5001993;28;87031;-53
2022/10/28 08:28:18;;;;;;;1.77;1.30;;;;;;;;;;5002884;28;87110;-53
2022/10/28 08:30:46;;;;;;;8.90;1.90;;;;;;;;;;5002098;28;88200;-54
2022/10/28 08:33:36;;;;;;;3.73;1.67;;;;;;;;;;5002936;28;90317;-53
2022/10/28 08:36:05;;;;;;;0.67;0.67;;;;;;;;;;5002188;28;87091;-53
2022/10/28 08:38:33;;;;;;;1.33;1.00;;;;;;;;;;5011621;28;87406;-53
2022/10/28 08:41:04;;;;;;;4.23;1.17;;;;;;;;;;5021430;28;89169;-53
2022/10/28 08:43:35;;;;;;;2.37;1.07;;;;;;;;;;5022401;28;88401;-54
2022/10/28 08:46:25;;;;;;;1.37;0.90;;;;;;;;;;5022511;28;86940;-54
2022/10/28 08:48:55;;;;;;;3.93;1.30;;;;;;;;;;5022342;28;87033;-53
2022/10/28 08:51:23;;;;;;;1.73;1.20;;;;;;;;;;5021029;28;87871;-56
2022/10/28 08:53:53;;;;;;;2.20;1.30;;;;;;;;;;5022350;28;88826;-55
2022/10/28 08:56:24;;;;;;;1.90;1.20;;;;;;;;;;5022160;28;86878;-54
2022/10/28 08:58:53;;;;;;;2.07;1.20;;;;;;;;;;5022754;28;86211;-56
2022/10/28 09:01:29;;;;;;;2.20;1.20;;;;;;;;;;5020648;28;89072;-54
2022/10/28 09:03:59;;;;;;;1.97;1.10;;;;;;;;;;5021397;28;87025;-54
2022/10/28 09:06:28;;;;;;;1.57;1.00;;;;;;;;;;5021182;28;88066;-54
2022/10/28 09:08:57;;;;;;;4.77;1.10;;;;;;;;;;5021952;28;87050;-54
2022/10/28 09:11:42;;;;;;;1.37;0.67;;;;;;;;;;5021502;28;88983;-53
2022/10/28 09:14:19;;;;;;;2.33;1.13;;;;;;;;;;5010300;28;88446;-53
2022/10/28 09:16:48;;;;;;;1.57;1.00;;;;;;;;;;5022318;28;87062;-56
2022/10/28 09:19:24;;;;;;;0.70;0.70;;;;;;;;;;5021991;28;86928;-55
2022/10/28 09:21:53;;;;;;;2.43;0.97;;;;;;;;;;5020619;28;88217;-56
2022/10/28 09:24:37;;;;;;;1.80;0.97;;;;;;;;;;5021756;28;89148;-56
2022/10/28 09:27:07;;;;;;;1.57;0.73;;;;;;;;;;5021596;28;87117;-55
2022/10/28 09:29:37;;;;;;;2.00;1.30;;;;;;;;;;5021252;28;86963;-55
2022/10/28 09:32:13;;;;;;;0.77;0.77;;;;;;;;;;5021119;28;88965;-55
2022/10/28 09:34:44;;;;;;;0.90;0.90;;;;;;;;;;5021621;28;87221;-55
2022/10/28 09:37:14;;;;;;;1.57;1.27;;;;;;;;;;5021625;28;87048;-54
2022/10/28 09:39:42;;;;;;;1.93;1.37;;;;;;;;;;5021396;28;86898;-56
2022/10/28 09:42:11;;;;;;;2.20;1.00;;;;;;;;;;5021206;28;89092;-56
2022/10/28 09:44:40;;;;;;;0.93;0.93;;;;;;;;;;5021389;28;88655;-55
2022/10/28 09:47:13;;;;;;;1.23;1.13;;;;;;;;;;5021643;28;86928;-56
2022/10/28 09:49:42;;;;;;;0.87;0.87;;;;;;;;;;5022154;28;86357;-56
2022/10/28 09:52:12;;;;;;;1.50;1.10;;;;;;;;;;5021069;28;86756;-56
2022/10/28 09:54:43;;;;;;;5.10;1.63;;;;;;;;;;5021529;28;87307;-55
2022/10/28 09:57:12;;;;;;;1.13;0.73;;;;;;;;;;5021455;28;87966;-55
2022/10/28 09:59:44;;;;;;;1.57;1.13;;;;;;;;;;5021591;28;87045;-55
2022/10/28 10:02:19;;;;;;;4.27;1.17;;;;;;;;;;5021138;28;87012;-55
2022/10/28 10:04:49;;;;;;;5.73;1.33;;;;;;;;;;5024302;28;87047;-55
2022/10/28 10:07:20;;;;;;;0.90;0.90;;;;;;;;;;5024175;28;87081;-55
2022/10/28 10:09:48;;;;;;;3.13;1.23;;;;;;;;;;5024860;28;86913;-56
2022/10/28 10:12:16;;;;;;;2.73;1.33;;;;;;;;;;5023813;28;89170;-55
2022/10/28 10:14:46;;;;;;;3.27;1.30;;;;;;;;;;5024071;28;87937;-55
2022/10/28 10:17:16;;;;;;;3.77;1.00;;;;;;;;;;5024834;28;87698;-55
2022/10/28 10:19:59;;;;;;;1.63;1.00;;;;;;;;;;5024726;28;87054;-55
2022/10/28 10:22:32;;;;;;;1.30;1.20;;;;;;;;;;5022042;28;88877;-55
2022/10/28 10:25:01;;;;;;;1.17;0.50;;;;;;;;;;5023960;28;88771;-55
2022/10/28 10:27:29;;;;;;;4.17;1.17;;;;;;;;;;5024482;28;87042;-55
2022/10/28 10:29:57;;;;;;;1.63;0.90;;;;;;;;;;5024571;28;87031;-56
2022/10/28 10:32:26;;;;;;;1.23;1.03;;;;;;;;;;5024068;28;86971;-55
2022/10/28 10:34:57;;;;;;;2.83;0.97;;;;;;;;;;5024418;28;87638;-54
2022/10/28 10:37:25;;;;;;;3.63;1.00;;;;;;;;;;5024004;28;87473;-55
2022/10/28 10:40:03;;;;;;;1.60;0.93;;;;;;;;;;5024829;28;86205;-56
2022/10/28 10:42:32;;;;;;;1.83;1.17;;;;;;;;;;5024213;28;88081;-55
2022/10/28 10:45:21;;;;;;;1.07;0.97;;;;;;;;;;5023136;28;87678;-55
2022/10/28 10:47:50;;;;;;;1.57;1.10;;;;;;;;;;5023214;28;88042;-54
2022/10/28 10:50:22;;;;;;;1.27;0.93;;;;;;;;;;5023850;28;87002;-55
2022/10/28 10:52:51;;;;;;;1.00;0.70;;;;;;;;;;5023970;28;89393;-55
2022/10/28 10:55:23;;;;;;;1.40;1.10;;;;;;;;;;5023973;28;88817;-54
2022/10/28 10:57:51;;;;;;;2.20;1.00;;;;;;;;;;5023816;28;87018;-54
2022/10/28 11:00:22;;;;;;;1.70;1.10;;;;;;;;;;5023985;28;87102;-54
2022/10/28 11:02:50;;;;;;;4.10;1.10;;;;;;;;;;5023964;28;88338;-54
2022/10/28 11:05:23;;;;;;;2.03;1.27;;;;;;;;;;5024226;28;87690;-55
2022/10/28 11:08:05;;;;;;;2.07;1.10;;;;;;;;;;5023551;28;87044;-55
2022/10/28 11:10:35;;;;;;;1.27;1.03;;;;;;;;;;5024292;28;86928;-54
2022/10/28 11:13:04;;;;;;;2.27;0.77;;;;;;;;;;5022833;28;87918;-54
2022/10/28 11:15:33;;;;;;;2.30;0.83;;;;;;;;;;5023004;28;88692;-55
2022/10/28 11:18:02;;;;;;;2.43;1.17;;;;;;;;;;5023653;28;86785;-54
2022/10/28 11:20:33;;;;;;;2.83;1.57;;;;;;;;;;5023656;28;87057;-54
2022/10/28 11:23:08;;;;;;;2.73;1.40;;;;;;;;;;5023074;28;89381;-54
2022/10/28 11:25:38;;;;;;;1.83;1.13;;;;;;;;;;5023395;28;88893;-54
2022/10/28 11:28:13;;;;;;;2.00;1.30;;;;;;;;;;5023894;28;86861;-54
2022/10/28 11:30:46;;;;;;;1.20;1.10;;;;;;;;;;5023682;28;86385;-55
2022/10/28 11:33:14;;;;;;;4.73;1.10;;;;;;;;;;5022766;28;87749;-54
2022/10/28 11:35:58;;;;;;;3.03;1.30;;;;;;;;;;5023113;28;87630;-54
2022/10/28 11:38:34;;;;;;;1.20;1.10;;;;;;;;;;5023100;28;88790;-54
2022/10/28 11:41:10;;;;;;;1.60;1.10;;;;;;;;;;5023346;28;86902;-54
2022/10/28 11:43:39;;;;;;;2.90;1.03;;;;;;;;;;5023123;28;88133;-54
2022/10/28 11:46:09;;;;;;;1.70;1.10;;;;;;;;;;5023508;28;87938;-54
2022/10/28 11:48:43;;;;;;;3.83;1.23;;;;;;;;;;5023839;28;86902;-55
2022/10/28 11:51:14;;;;;;;3.70;1.43;;;;;;;;;;5023184;28;87677;-54
2022/10/28 11:54:03;;;;;;;2.93;1.40;;;;;;;;;;5023148;28;88145;-54
2022/10/28 11:56:35;;;;;;;1.87;1.27;;;;;;;;;;5017560;28;88840;-54
2022/10/28 11:59:15;;;;;;;1.33;1.00;;;;;;;;;;5023255;28;86831;-54
2022/10/28 12:01:45;;;;;;;1.23;1.13;;;;;;;;;;5023410;28;86949;-54
2022/10/28 12:04:21;;;;;;;3.67;1.07;;;;;;;;;;5022231;28;90136;-55
2022/10/28 12:07:13;;;;;;;3.40;0.80;;;;;;;;;;5022965;28;88255;-54
2022/10/28 12:09:48;;;;;;;3.40;1.13;;;;;;;;;;5008265;28;87005;-55
2022/10/28 12:12:19;;;;;;;5.13;1.00;;;;;;;;;;5014571;28;86961;-55
2022/10/28 12:14:49;;;;;;;7.33;1.33;;;;;;;;;;5022701;28;88144;-54
2022/10/28 12:17:18;;;;;;;3.40;1.27;;;;;;;;;;5022995;28;89071;-54
2022/10/28 12:19:47;;;;;;;1.33;1.10;;;;;;;;;;5022967;28;87019;-54
2022/10/28 12:22:18;;;;;;;1.40;1.30;;;;;;;;;;5023260;28;86362;-54
2022/10/28 12:24:46;;;;;;;1.40;1.00;;;;;;;;;;5022410;28;88263;-55
2022/10/28 12:27:16;;;;;;;1.33;1.10;;;;;;;;;;5020628;28;90596;-54
2022/10/28 12:29:48;;;;;;;0.90;0.80;;;;;;;;;;5022495;28;87860;-54
2022/10/28 12:32:18;;;;;;;2.03;0.90;;;;;;;;;;5023031;28;87160;-54
2022/10/28 12:34:48;;;;;;;2.50;1.30;;;;;;;;;;5022690;28;88088;-55
2022/10/28 12:37:16;;;;;;;1.00;0.90;;;;;;;;;;5022791;28;87410;-54
2022/10/28 12:39:47;;;;;;;1.47;1.23;;;;;;;;;;5022485;28;86988;-55
2022/10/28 12:42:17;;;;;;;1.97;1.73;;;;;;;;;;5022011;28;87026;-55
2022/10/28 12:44:45;;;;;;;0.87;0.80;;;;;;;;;;5022269;28;87896;-54
2022/10/28 12:47:22;;;;;;;1.37;1.03;;;;;;;;;;5022595;28;87723;-54
2022/10/28 12:49:57;;;;;;;5.80;1.17;;;;;;;;;;5022248;28;87101;-55
2022/10/28 12:52:32;;;;;;;0.67;0.67;;;;;;;;;;5022145;28;87038;-55
2022/10/28 12:55:02;;;;;;;0.83;0.80;;;;;;;;;;5021558;28;90017;-54
2022/10/28 12:57:31;;;;;;;0.83;0.83;;;;;;;;;;5022114;28;88662;-55
2022/10/28 13:00:00;;;;;;;2.77;1.03;;;;;;;;;;5021359;28;87363;-55
2022/10/28 13:02:31;;;;;;;1.53;1.07;;;;;;;;;;5022384;28;86994;-54
2022/10/28 13:04:59;;;;;;;1.00;0.90;;;;;;;;;;5022133;28;89273;-55
2022/10/28 13:07:35;;;;;;;3.13;1.30;;;;;;;;;;5021880;28;87775;-54
2022/10/28 13:10:10;;;;;;;1.80;1.40;;;;;;;;;;5022301;28;86729;-55
2022/10/28 13:12:53;;;;;;;2.50;1.40;;;;;;;;;;5021486;28;86226;-55
2022/10/28 13:15:35;;;;;;;2.27;1.10;;;;;;;;;;5021582;28;88226;-55
2022/10/28 13:18:08;;;;;;;0.80;0.80;;;;;;;;;;5021187;28;87637;-54
2022/10/28 13:20:42;;;;;;;2.30;1.20;;;;;;;;;;5021884;28;88073;-55
2022/10/28 13:23:12;;;;;;;1.83;0.87;;;;;;;;;;5021973;28;86986;-54
2022/10/28 13:25:52;;;;;;;3.43;1.60;;;;;;;;;;5021741;28;87865;-55
2022/10/28 13:28:20;;;;;;;1.10;1.00;;;;;;;;;;5021791;28;87788;-55
2022/10/28 13:30:52;;;;;;;1.57;0.83;;;;;;;;;;5021575;28;87135;-54
2022/10/28 13:33:24;;;;;;;1.07;0.70;;;;;;;;;;5021226;28;87014;-54
2022/10/28 13:35:52;;;;;;;1.23;0.90;;;;;;;;;;5021382;28;87887;-54
2022/10/28 13:38:22;;;;;;;0.83;0.83;;;;;;;;;;5024021;28;87546;-54
2022/10/28 13:41:10;;;;;;;0.93;0.77;;;;;;;;;;5025303;28;87113;-55
2022/10/28 13:44:05;;;;;;;1.47;1.00;;;;;;;;;;5025091;28;86864;-55
2022/10/28 13:46:52;;;;;;;1.93;0.70;;;;;;;;;;4988947;28;89811;-55
2022/10/28 13:49:25;;;;;;;1.20;1.00;;;;;;;;;;5024376;28;88729;-54
2022/10/28 13:51:59;;;;;;;0.70;0.70;;;;;;;;;;5025166;28;87012;-54
2022/10/28 13:54:28;;;;;;;1.37;0.90;;;;;;;;;;5024956;28;87076;-54
2022/10/28 13:56:58;;;;;;;1.13;1.03;;;;;;;;;;5024813;28;88935;-54
2022/10/28 13:59:30;;;;;;;2.83;1.10;;;;;;;;;;5024728;28;87759;-55
2022/10/28 14:02:03;;;;;;;2.17;0.97;;;;;;;;;;5021646;28;87099;-54
2022/10/28 14:04:59;;;;;;;1.67;1.30;;;;;;;;;;5025070;28;86267;-54
2022/10/28 14:07:29;;;;;;;1.60;0.90;;;;;;;;;;5024233;28;87826;-55
2022/10/28 14:09:59;;;;;;;1.23;0.80;;;;;;;;;;5024538;28;87693;-54
2022/10/28 14:12:28;;;;;;;2.60;1.27;;;;;;;;;;5023687;28;87917;-55
2022/10/28 14:15:00;;;;;;;1.00;0.90;;;;;;;;;;5024576;28;87663;-55
2022/10/28 14:17:30;;;;;;;2.37;1.07;;;;;;;;;;5023894;28;90595;-55
2022/10/28 14:20:00;;;;;;;0.83;0.83;;;;;;;;;;5024133;28;87848;-54
2022/10/28 14:22:29;;;;;;;1.20;1.10;;;;;;;;;;5024860;28;87045;-55
2022/10/28 14:24:57;;;;;;;2.17;0.87;;;;;;;;;;5024433;28;86986;-55
2022/10/28 14:27:40;;;;;;;2.70;1.17;;;;;;;;;;5023996;28;89076;-55
2022/10/28 14:30:18;;;;;;;0.80;0.80;;;;;;;;;;5024709;28;88589;-54
2022/10/28 14:33:00;;;;;;;2.37;1.03;;;;;;;;;;5024468;28;86933;-55
2022/10/28 14:35:34;;;;;;;0.80;0.80;;;;;;;;;;5024193;28;87106;-56
2022/10/28 14:38:18;;;;;;;1.13;1.07;;;;;;;;;;5022668;28;89086;-54
2022/10/28 14:40:47;;;;;;;1.13;0.97;;;;;;;;;;5024026;28;88845;-55
2022/10/28 14:43:24;;;;;;;1.93;0.90;;;;;;;;;;5024420;28;86760;-54
2022/10/28 14:46:00;;;;;;;2.27;0.97;;;;;;;;;;5023965;28;86957;-54
2022/10/28 14:48:40;;;;;;;1.83;1.10;;;;;;;;;;5023658;28;86940;-55
2022/10/28 14:51:10;;;;;;;1.43;1.00;;;;;;;;;;5023645;28;87821;-54
2022/10/28 14:53:38;;;;;;;1.10;0.80;;;;;;;;;;5023290;28;86958;-54
2022/10/28 14:56:08;;;;;;;3.40;1.33;;;;;;;;;;5024354;28;86256;-55
2022/10/28 14:58:37;;;;;;;3.03;0.83;;;;;;;;;;5024047;28;86824;-55
2022/10/28 15:01:14;;;;;;;1.20;1.10;;;;;;;;;;5023694;28;88024;-55
2022/10/28 15:03:43;;;;;;;4.47;1.23;;;;;;;;;;5023570;28;87992;-54